Time;durP1;ratioP1;P1;durP2;ratioP2;P2;SDS_P1;SDS_P2;PMS_P1;PMS_P2;Temp;Humidity;BMP_temperature;BMP_pressure;BME280_temperature;BME280_humidity;BME280_pressure;Samples;Min_cycle;Max_cycle;Signal;HPM_P1;HPM_P2
2022/01/24 00:02:07;;;;;;;5.20;3.40;;;;;;;18.85;46.11;101939.38;5012538;28;20695;-60
2022/01/24 00:04:33;;;;;;;6.60;3.70;;;;;;;18.83;46.36;101936.03;5012775;28;20224;-60
2022/01/24 00:06:58;;;;;;;7.70;4.07;;;;;;;18.80;46.42;101931.84;5012721;28;20674;-60
2022/01/24 00:09:24;;;;;;;9.23;3.70;;;;;;;18.80;46.38;101923.25;5012534;28;20633;-60
2022/01/24 00:17:31;;;;;;;5.47;3.40;;;;;;;18.78;46.48;101924.78;4992933;28;20800;-60
2022/01/24 00:28:08;;;;;;;5.13;3.60;;;;;;;18.79;47.01;101907.28;4993101;28;20467;-60
2022/01/24 00:30:34;;;;;;;7.60;4.03;;;;;;;18.77;47.30;101912.47;4992040;28;20848;-60
2022/01/24 00:32:59;;;;;;;5.53;3.50;;;;;;;18.74;47.32;101912.34;4992686;28;20184;-60
2022/01/24 00:35:25;;;;;;;9.47;3.37;;;;;;;18.80;46.95;101919.53;4992528;28;20236;-60
2022/01/24 00:37:50;;;;;;;6.20;3.70;;;;;;;18.78;47.44;101907.63;4992732;28;20181;-61
2022/01/24 00:40:16;;;;;;;8.03;3.40;;;;;;;18.74;47.61;101912.34;4991720;28;20181;-60
2022/01/24 00:42:57;;;;;;;4.33;3.30;;;;;;;18.77;47.40;101917.38;4995502;28;20212;-60
2022/01/24 00:45:35;;;;;;;4.90;2.90;;;;;;;18.78;47.01;101916.19;4992356;28;20271;-60
2022/01/24 00:55:47;;;;;;;5.07;3.37;;;;;;;18.79;47.39;101915.00;5011379;28;20905;-60
2022/01/24 00:58:16;;;;;;;5.23;3.67;;;;;;;18.76;47.65;101907.13;5010977;28;20448;-61
2022/01/24 01:00:41;;;;;;;5.57;3.70;;;;;;;18.77;47.59;101900.22;5011266;28;20525;-60
2022/01/24 01:03:07;;;;;;;5.43;3.67;;;;;;;18.77;47.97;101908.81;5011844;28;20420;-61
2022/01/24 01:18:59;;;;;;;3.50;2.87;;;;;;;18.78;47.79;101893.31;4990255;28;20909;-60
2022/01/24 01:21:25;;;;;;;4.97;3.40;;;;;;;18.78;47.79;101901.91;4995162;28;20700;-60
2022/01/24 01:23:54;;;;;;;6.43;3.80;;;;;;;18.73;48.17;101894.34;5011174;28;20173;-61
2022/01/24 01:29:25;;;;;;;4.50;3.10;;;;;;;18.73;47.85;101900.06;4998933;28;20444;-60
2022/01/24 01:32:43;;;;;;;4.30;3.20;;;;;;;18.71;48.31;101902.41;5011284;28;20523;-60
2022/01/24 01:35:04;;;;;;;5.47;3.27;;;;;;;18.75;48.01;101897.69;5007948;28;20900;-60
2022/01/24 01:56:05;;;;;;;4.80;3.57;;;;;;;18.67;48.50;101912.88;4990198;28;20424;-60
2022/01/24 01:58:30;;;;;;;4.33;2.93;;;;;;;18.68;48.58;101914.56;4991022;28;20432;-60
2022/01/24 02:00:58;;;;;;;3.90;3.00;;;;;;;18.66;48.65;101919.78;4991213;28;20469;-60
2022/01/24 02:03:24;;;;;;;3.40;2.60;;;;;;;18.67;48.54;101924.31;4990735;28;20173;-60
2022/01/24 02:05:49;;;;;;;4.93;3.33;;;;;;;18.69;49.26;101924.81;4991293;28;20475;-60
2022/01/24 02:08:16;;;;;;;3.97;2.60;;;;;;;18.65;48.60;101920.97;4990981;28;20232;-60
2022/01/24 02:10:43;;;;;;;4.10;2.83;;;;;;;18.64;48.90;101929.88;4993372;28;20182;-60
2022/01/24 02:13:08;;;;;;;3.80;3.03;;;;;;;18.66;48.83;101928.34;5010553;28;20494;-60
2022/01/24 02:21:08;;;;;;;3.87;2.80;;;;;;;18.63;49.41;101909.03;5009146;28;20428;-60
2022/01/24 02:25:55;;;;;;;4.83;2.80;;;;;;;18.63;49.28;101923.34;5010441;28;20463;-60
2022/01/24 02:28:22;;;;;;;3.93;3.03;;;;;;;18.67;48.79;101917.78;5010318;28;20177;-61
2022/01/24 02:33:14;;;;;;;5.40;2.90;;;;;;;18.68;48.67;101913.72;5009700;28;20427;-60
2022/01/24 02:35:39;;;;;;;3.80;2.70;;;;;;;18.64;48.96;101918.44;5010838;28;20411;-60
2022/01/24 02:38:12;;;;;;;4.70;2.80;;;;;;;18.65;49.20;101915.25;5010236;28;20188;-60
2022/01/24 02:40:38;;;;;;;4.20;2.90;;;;;;;18.65;48.67;101915.25;5010051;28;20196;-60
2022/01/24 02:46:07;;;;;;;4.80;3.30;;;;;;;18.62;49.29;101915.09;5009772;28;20695;-60
2022/01/24 02:48:33;;;;;;;4.67;3.30;;;;;;;18.63;49.09;101917.63;5009751;28;20424;-60
2022/01/24 02:53:33;;;;;;;3.50;2.70;;;;;;;18.61;49.19;101933.44;5009892;28;20505;-60
2022/01/24 02:55:59;;;;;;;3.93;2.90;;;;;;;18.64;48.83;101924.16;5009061;28;20443;-60
2022/01/24 02:58:24;;;;;;;5.13;2.87;;;;;;;18.62;49.00;101923.69;5009502;28;20435;-61
2022/01/24 03:00:50;;;;;;;4.00;2.70;;;;;;;18.66;49.22;101921.81;5008911;28;20229;-60
2022/01/24 03:03:15;;;;;;;3.50;2.40;;;;;;;18.61;49.86;101913.44;5009695;28;20540;-60
2022/01/24 03:05:41;;;;;;;5.77;2.90;;;;;;;18.61;49.22;101914.25;5007177;28;20668;-60
2022/01/24 03:08:07;;;;;;;4.10;2.83;;;;;;;18.57;49.43;101907.53;5009861;28;20212;-60
2022/01/24 03:10:52;;;;;;;3.53;2.40;;;;;;;18.59;49.35;101901.47;5008735;28;20184;-60
2022/01/24 03:15:44;;;;;;;4.37;2.57;;;;;;;18.59;49.04;101901.47;5010234;28;20811;-60
2022/01/24 03:18:12;;;;;;;4.80;3.07;;;;;;;18.62;49.46;101895.06;5010117;28;20173;-60
2022/01/24 03:20:38;;;;;;;4.10;3.00;;;;;;;18.60;49.24;101901.13;4994471;28;20747;-60
2022/01/24 03:23:04;;;;;;;3.40;2.43;;;;;;;18.62;49.28;101901.63;4990588;28;20435;-60
2022/01/24 03:25:29;;;;;;;3.10;2.30;;;;;;;18.60;49.48;101895.41;4990025;28;20460;-60
2022/01/24 03:27:55;;;;;;;3.93;2.40;;;;;;;18.61;49.40;101890.53;4990289;28;20633;-60
2022/01/24 03:30:21;;;;;;;4.23;2.83;;;;;;;18.59;49.11;101893.75;4989560;28;20174;-60
2022/01/24 03:32:46;;;;;;;3.60;2.33;;;;;;;18.60;49.05;101891.69;4990201;28;20178;-60
2022/01/24 03:35:12;;;;;;;4.80;3.03;;;;;;;18.59;48.95;101890.88;4993155;28;20174;-60
2022/01/24 03:37:37;;;;;;;3.50;2.60;;;;;;;18.57;49.27;101890.38;4992937;28;20178;-60
2022/01/24 03:40:03;;;;;;;4.40;2.90;;;;;;;18.57;49.14;101893.22;4994805;28;20249;-60
2022/01/24 03:42:29;;;;;;;7.47;2.80;;;;;;;18.60;49.02;101883.97;5010162;28;20192;-60
2022/01/24 03:44:58;;;;;;;3.10;2.20;;;;;;;18.61;49.59;101884.81;5012787;28;20459;-60
2022/01/24 03:50:08;;;;;;;3.70;2.47;;;;;;;18.60;49.04;101889.69;5012648;28;20411;-60
2022/01/24 03:52:34;;;;;;;2.73;2.30;;;;;;;18.55;49.23;101889.03;5011809;28;20792;-60
2022/01/24 03:55:00;;;;;;;4.00;2.50;;;;;;;18.60;49.05;101883.13;5012893;28;20469;-61
2022/01/24 03:57:25;;;;;;;3.67;2.53;;;;;;;18.60;49.03;101883.97;5012963;28;20165;-60
2022/01/24 03:59:51;;;;;;;5.60;3.03;;;;;;;18.57;49.44;101884.63;5012080;28;20431;-60
2022/01/24 04:02:17;;;;;;;3.63;2.40;;;;;;;18.56;49.12;101887.88;5012894;28;20243;-60
2022/01/24 04:04:43;;;;;;;3.37;2.53;;;;;;;18.56;49.32;101888.69;5012419;28;20193;-60
2022/01/24 04:07:09;;;;;;;3.30;2.23;;;;;;;18.60;49.48;101886.81;5012969;28;20802;-60
2022/01/24 04:09:35;;;;;;;3.70;2.63;;;;;;;18.56;49.67;101885.81;5011941;28;20177;-60
2022/01/24 04:12:02;;;;;;;5.50;3.00;;;;;;;18.56;49.55;101887.88;5012645;28;20212;-60
2022/01/24 04:14:41;;;;;;;3.73;2.70;;;;;;;18.56;50.07;101882.97;5012648;28;20469;-60
2022/01/24 04:22:20;;;;;;;3.63;2.20;;;;;;;18.59;49.13;101888.03;5012311;28;20520;-60
2022/01/24 04:24:46;;;;;;;4.33;2.60;;;;;;;18.53;49.42;101885.69;5012177;28;20443;-60
2022/01/24 04:27:13;;;;;;;3.00;2.23;;;;;;;18.55;49.38;101889.88;5011249;28;20470;-60
2022/01/24 04:29:38;;;;;;;3.80;2.60;;;;;;;18.56;49.50;101894.41;5011566;28;20423;-60
2022/01/24 04:32:04;;;;;;;6.33;2.70;;;;;;;18.53;49.31;101886.53;5012627;28;20768;-60
2022/01/24 04:34:30;;;;;;;3.57;2.80;;;;;;;18.58;49.42;101892.06;5008726;28;20539;-60
2022/01/24 04:36:55;;;;;;;3.70;2.20;;;;;;;18.56;49.46;101891.56;5012385;28;20184;-60
2022/01/24 04:39:21;;;;;;;7.60;3.13;;;;;;;18.59;49.09;101890.88;5011731;28;20169;-60
2022/01/24 04:41:50;;;;;;;3.60;2.33;;;;;;;18.59;49.16;101893.75;5011847;28;20658;-60
2022/01/24 04:44:42;;;;;;;3.93;2.43;;;;;;;18.56;49.45;101888.69;5011486;28;20281;-60
2022/01/24 04:52:50;;;;;;;3.70;2.60;;;;;;;18.61;49.25;101882.78;5011452;28;20793;-61
2022/01/24 04:55:16;;;;;;;4.40;2.70;;;;;;;18.55;49.19;101887.03;5011115;28;20412;-60
2022/01/24 04:57:41;;;;;;;4.43;3.13;;;;;;;18.63;49.36;101886.16;5012091;28;20443;-61
2022/01/24 05:00:09;;;;;;;3.57;2.50;;;;;;;18.60;49.41;101895.41;5011936;28;20181;-60
2022/01/24 05:02:34;;;;;;;3.00;2.37;;;;;;;18.61;49.34;101885.63;5010959;28;20256;-61
2022/01/24 05:05:00;;;;;;;4.50;2.70;;;;;;;18.55;49.33;101886.16;5011240;28;20817;-60
2022/01/24 05:07:26;;;;;;;3.30;2.50;;;;;;;18.55;49.50;101884.16;5011477;28;20217;-60
2022/01/24 05:09:59;;;;;;;4.13;2.53;;;;;;;18.62;49.14;101883.63;5010888;28;20204;-60
2022/01/24 05:23:32;;;;;;;3.50;2.50;;;;;;;18.54;49.73;101893.94;5011046;28;20482;-61
2022/01/24 05:25:59;;;;;;;3.20;2.30;;;;;;;18.57;49.06;101893.22;5011190;28;20966;-60
2022/01/24 05:28:25;;;;;;;3.63;2.57;;;;;;;18.62;49.30;101898.75;5011474;28;20546;-61
2022/01/24 05:30:50;;;;;;;4.63;2.40;;;;;;;18.58;49.70;101892.06;5010716;28;20456;-60
2022/01/24 05:33:15;;;;;;;3.50;2.60;;;;;;;18.59;49.24;101887.16;5011107;28;20173;-60
2022/01/24 05:35:41;;;;;;;3.43;2.40;;;;;;;18.62;49.40;101886.50;5011373;28;20173;-60
2022/01/24 05:38:06;;;;;;;3.20;2.03;;;;;;;18.59;49.38;101890.88;5011201;28;20252;-61
2022/01/24 05:40:32;;;;;;;3.50;2.27;;;;;;;18.53;49.57;101889.41;5001720;28;20201;-60
2022/01/24 05:42:57;;;;;;;3.53;2.60;;;;;;;18.59;49.02;101896.59;5010683;28;20188;-60
2022/01/24 05:45:23;;;;;;;2.80;1.97;;;;;;;18.57;49.23;101890.38;5010873;28;20683;-60
2022/01/24 05:47:48;;;;;;;3.23;2.20;;;;;;;18.60;49.69;101888.84;5010538;28;20596;-60
2022/01/24 05:50:14;;;;;;;3.67;2.30;;;;;;;18.58;49.45;101886.34;4991129;28;20182;-60
2022/01/24 05:52:39;;;;;;;3.33;2.27;;;;;;;18.57;49.56;101896.09;4991516;28;20188;-60
2022/01/24 05:55:05;;;;;;;3.60;2.23;;;;;;;18.63;49.09;101893.88;4991350;28;20277;-60
2022/01/24 05:57:30;;;;;;;3.50;2.30;;;;;;;18.59;49.29;101895.75;4990155;28;20209;-60
2022/01/24 05:59:56;;;;;;;4.20;2.50;;;;;;;18.60;49.26;101883.13;4991372;28;20505;-61
2022/01/24 06:02:21;;;;;;;3.37;2.50;;;;;;;18.61;49.03;101890.53;4989873;28;20303;-60
2022/01/24 06:04:47;;;;;;;3.50;2.40;;;;;;;18.60;49.37;101901.13;4989515;28;20205;-61
2022/01/24 06:07:12;;;;;;;3.50;2.50;;;;;;;18.64;49.17;101901.28;4990428;28;20579;-60
2022/01/24 06:09:38;;;;;;;3.63;2.47;;;;;;;18.60;48.86;101898.28;4990536;28;20189;-60
2022/01/24 06:12:04;;;;;;;3.87;2.70;;;;;;;18.64;48.90;101896.41;5004619;28;20255;-60
2022/01/24 06:14:29;;;;;;;3.23;2.00;;;;;;;18.63;49.10;101894.75;5010280;28;20636;-60
2022/01/24 06:16:55;;;;;;;5.33;2.50;;;;;;;18.63;49.66;101891.88;5010817;28;20185;-61
2022/01/24 06:19:20;;;;;;;3.70;2.60;;;;;;;18.61;49.30;101890.53;5009667;28;20255;-60
2022/01/24 06:21:45;;;;;;;2.87;2.03;;;;;;;18.61;49.52;101899.13;5010410;28;20181;-60
2022/01/24 06:24:11;;;;;;;4.27;2.77;;;;;;;18.60;49.12;101901.13;5010560;28;20205;-60
2022/01/24 06:26:37;;;;;;;3.90;2.73;;;;;;;18.61;49.31;101891.34;5010721;28;20713;-60
2022/01/24 06:29:03;;;;;;;3.57;2.60;;;;;;;18.62;49.72;101898.75;5009801;28;20180;-61
2022/01/24 06:31:28;;;;;;;5.10;2.67;;;;;;;18.64;49.31;101889.84;5010087;28;20620;-60
2022/01/24 06:33:54;;;;;;;3.53;1.93;;;;;;;18.63;49.21;101896.75;5010260;28;20239;-60
2022/01/24 06:36:19;;;;;;;3.10;2.30;;;;;;;18.63;49.27;101900.47;5010402;28;20178;-60
2022/01/24 06:38:44;;;;;;;4.47;2.30;;;;;;;18.61;49.16;101902.81;5006417;28;20185;-60
2022/01/24 06:41:10;;;;;;;4.53;2.80;;;;;;;18.65;48.99;101908.66;5008737;28;20200;-60
2022/01/24 06:43:35;;;;;;;3.63;2.60;;;;;;;18.63;48.95;101909.03;5008920;28;20588;-61
2022/01/24 06:46:01;;;;;;;4.07;2.53;;;;;;;18.56;49.56;101911.56;5010250;28;20205;-60
2022/01/24 06:48:27;;;;;;;3.43;2.40;;;;;;;18.63;49.15;101911.91;5010539;28;20184;-60
2022/01/24 06:50:52;;;;;;;3.30;2.43;;;;;;;18.57;49.14;101907.53;5009177;28;20640;-60
2022/01/24 06:53:18;;;;;;;3.53;2.50;;;;;;;18.63;49.11;101903.31;5009767;28;20413;-59
2022/01/24 06:55:44;;;;;;;4.17;2.50;;;;;;;18.59;49.43;101898.59;5009475;28;20180;-60
2022/01/24 06:58:09;;;;;;;4.37;2.83;;;;;;;18.64;49.16;101902.13;5010261;28;20200;-60
2022/01/24 07:00:34;;;;;;;3.17;2.20;;;;;;;18.65;49.35;101908.66;5009484;28;20182;-60
2022/01/24 07:03:00;;;;;;;3.30;2.13;;;;;;;18.69;49.03;101915.38;5009925;28;20632;-60
2022/01/24 07:05:26;;;;;;;4.20;2.87;;;;;;;18.65;49.10;101908.66;5010167;28;20228;-60
2022/01/24 07:07:51;;;;;;;4.00;2.63;;;;;;;18.64;49.18;101904.13;5009436;28;20223;-60
2022/01/24 07:10:17;;;;;;;4.53;2.90;;;;;;;18.64;49.11;101910.72;5011562;28;20459;-60
2022/01/24 07:12:42;;;;;;;3.83;2.40;;;;;;;18.62;49.32;101904.47;5013740;28;20180;-61
2022/01/24 07:15:12;;;;;;;3.10;2.23;;;;;;;18.63;49.06;101902.47;5013727;28;20176;-60
2022/01/24 07:20:22;;;;;;;4.00;2.60;;;;;;;18.65;49.66;101902.94;5013286;28;20431;-60
2022/01/24 07:22:47;;;;;;;3.23;2.50;;;;;;;18.66;49.34;101902.63;5013385;28;20578;-60
2022/01/24 07:25:13;;;;;;;4.10;2.47;;;;;;;18.63;49.55;101908.19;5013941;28;20193;-61
2022/01/24 07:27:38;;;;;;;4.30;2.70;;;;;;;18.66;48.91;101919.78;5013750;28;20422;-60
2022/01/24 07:30:04;;;;;;;4.70;2.90;;;;;;;18.66;49.22;101918.97;5013205;28;20173;-60
2022/01/24 07:32:30;;;;;;;3.43;2.50;;;;;;;18.63;49.29;101913.91;5013136;28;20188;-60
2022/01/24 07:34:56;;;;;;;4.03;2.50;;;;;;;18.59;49.55;101916.63;5010130;28;20991;-60
2022/01/24 07:37:22;;;;;;;3.73;2.37;;;;;;;18.71;48.82;101913.03;5013149;28;20261;-60
2022/01/24 07:39:48;;;;;;;3.73;2.77;;;;;;;18.72;49.17;101911.84;5013040;28;20219;-60
2022/01/24 07:42:16;;;;;;;3.60;2.33;;;;;;;18.69;48.79;101916.25;5012903;28;20522;-60
2022/01/24 07:44:42;;;;;;;3.70;2.50;;;;;;;18.64;49.26;101910.72;5012688;28;20503;-60
2022/01/24 07:47:07;;;;;;;3.67;2.40;;;;;;;18.67;49.01;101917.78;5013084;28;20808;-60
2022/01/24 07:49:34;;;;;;;4.30;2.50;;;;;;;18.69;48.84;101915.38;5013098;28;20251;-60
2022/01/24 07:52:00;;;;;;;3.40;2.53;;;;;;;18.69;48.92;101912.53;5013083;28;20184;-60
2022/01/24 07:54:25;;;;;;;3.97;2.60;;;;;;;18.68;48.85;101908.84;5012752;28;20911;-60
2022/01/24 07:56:51;;;;;;;4.33;2.30;;;;;;;18.70;49.01;101912.19;5012857;28;20173;-60
2022/01/24 07:59:16;;;;;;;3.73;2.43;;;;;;;18.74;48.88;101918.91;5012432;28;20185;-60
2022/01/24 08:01:42;;;;;;;4.40;2.77;;;;;;;18.76;48.79;101921.44;5012989;28;20229;-60
2022/01/24 08:04:08;;;;;;;3.93;2.40;;;;;;;18.67;49.05;101920.63;5012919;28;20192;-60
2022/01/24 08:06:34;;;;;;;3.53;2.47;;;;;;;18.69;49.03;101933.41;5012068;28;20204;-60
2022/01/24 08:08:59;;;;;;;3.97;2.70;;;;;;;18.68;48.93;101926.00;5012239;28;20416;-61
2022/01/24 08:11:25;;;;;;;3.10;2.30;;;;;;;18.69;49.29;101936.28;5012906;28;20189;-60
2022/01/24 08:13:52;;;;;;;3.20;2.30;;;;;;;18.66;49.57;101938.97;5012052;28;20544;-60
2022/01/24 08:16:17;;;;;;;3.73;2.27;;;;;;;18.62;49.43;101938.81;5012613;28;20169;-60
2022/01/24 08:18:43;;;;;;;4.00;2.97;;;;;;;18.70;49.00;101935.09;5012441;28;20836;-60
2022/01/24 08:21:08;;;;;;;3.80;2.70;;;;;;;18.75;48.74;101932.03;5011628;28;20195;-61
2022/01/24 08:23:34;;;;;;;3.07;2.30;;;;;;;18.69;48.90;101935.41;5012596;28;20173;-60
2022/01/24 08:25:59;;;;;;;4.17;2.80;;;;;;;18.72;48.78;101946.19;5011951;28;20200;-60
2022/01/24 08:28:24;;;;;;;3.30;2.30;;;;;;;18.67;49.60;101944.34;5012361;28;20220;-60
2022/01/24 08:30:52;;;;;;;3.67;2.50;;;;;;;18.68;49.08;101948.06;5012186;28;20181;-61
2022/01/24 08:33:17;;;;;;;3.20;2.40;;;;;;;18.65;49.32;101946.72;5011872;28;20177;-61
2022/01/24 08:35:42;;;;;;;3.13;2.40;;;;;;;18.69;49.42;101946.88;5010729;28;20427;-61
2022/01/24 08:38:08;;;;;;;3.33;2.17;;;;;;;18.73;49.00;101945.84;5010790;28;20552;-60
2022/01/24 08:40:35;;;;;;;3.20;2.40;;;;;;;18.71;48.89;101947.38;5011973;28;20501;-61
2022/01/24 08:43:03;;;;;;;3.00;2.10;;;;;;;18.71;48.92;101945.34;5012250;28;20173;-60
2022/01/24 08:45:58;;;;;;;3.70;2.57;;;;;;;18.73;48.70;101945.00;5011204;28;20448;-61
2022/01/24 08:48:23;;;;;;;3.53;2.43;;;;;;;18.74;48.61;101947.53;5012189;28;20412;-60
2022/01/24 08:50:50;;;;;;;3.00;2.40;;;;;;;18.71;49.00;101936.75;5011799;28;20856;-60
2022/01/24 08:53:16;;;;;;;3.43;2.57;;;;;;;18.74;48.90;101944.66;5011329;28;20184;-60
2022/01/24 08:55:41;;;;;;;3.80;2.63;;;;;;;18.73;48.68;101940.13;5011605;28;20786;-60
2022/01/24 08:58:08;;;;;;;3.63;2.50;;;;;;;18.73;49.26;101939.28;5011136;28;20173;-60
2022/01/24 09:00:34;;;;;;;3.60;2.70;;;;;;;18.78;48.67;101931.34;5011688;28;20247;-60
2022/01/24 09:02:59;;;;;;;3.40;2.47;;;;;;;18.74;49.37;101933.22;5011077;28;20467;-60
2022/01/24 09:05:26;;;;;;;3.23;2.47;;;;;;;18.76;48.95;101932.88;4997107;28;20638;-60
2022/01/24 09:07:51;;;;;;;3.20;2.47;;;;;;;18.82;48.70;101928.66;4991993;28;20181;-60
2022/01/24 09:10:17;;;;;;;3.40;2.50;;;;;;;18.71;48.88;101928.16;4991952;28;20413;-60
2022/01/24 09:12:43;;;;;;;3.70;2.60;;;;;;;18.69;48.91;101921.97;5009667;28;20173;-61
2022/01/24 09:15:09;;;;;;;3.87;2.70;;;;;;;18.72;49.16;101926.16;5026619;28;20427;-60
2022/01/24 09:17:34;;;;;;;3.30;2.50;;;;;;;18.78;48.67;101924.78;5011741;28;20648;-60
2022/01/24 09:20:00;;;;;;;3.53;2.60;;;;;;;18.79;48.88;101926.47;5011326;28;20181;-60
2022/01/24 09:22:25;;;;;;;3.10;2.20;;;;;;;18.79;48.65;101927.31;4999592;28;20400;-60
2022/01/24 09:24:51;;;;;;;3.50;2.57;;;;;;;18.72;49.07;101926.97;4991215;28;20205;-60
2022/01/24 09:27:16;;;;;;;4.40;2.50;;;;;;;18.77;48.78;101932.50;4990635;28;20162;-61
2022/01/24 09:29:42;;;;;;;3.40;2.60;;;;;;;18.80;48.98;101925.25;4990630;28;20178;-60
2022/01/24 09:32:07;;;;;;;3.70;2.70;;;;;;;18.77;48.73;101926.78;4991372;28;20661;-60
2022/01/24 09:34:33;;;;;;;3.27;2.30;;;;;;;18.73;48.99;101931.56;4990151;28;20170;-60
2022/01/24 09:36:58;;;;;;;3.27;2.47;;;;;;;18.76;49.21;101927.16;4991538;28;20169;-61
2022/01/24 09:39:24;;;;;;;2.93;2.23;;;;;;;18.78;48.98;101933.38;4994039;28;20224;-60
2022/01/24 09:41:50;;;;;;;4.43;2.83;;;;;;;18.74;49.16;101933.22;5002456;28;20189;-60
2022/01/24 09:44:16;;;;;;;3.47;2.67;;;;;;;18.75;49.17;101942.63;5010746;28;20675;-60
2022/01/24 09:46:43;;;;;;;3.70;2.70;;;;;;;18.79;49.49;101938.75;5011313;28;20427;-60
2022/01/24 09:49:09;;;;;;;3.53;2.70;;;;;;;18.75;48.76;101931.19;5010456;28;20189;-60
2022/01/24 09:51:37;;;;;;;4.07;2.50;;;;;;;18.78;49.05;101939.09;5010493;28;20964;-60
2022/01/24 09:54:03;;;;;;;3.87;2.93;;;;;;;18.80;48.94;101942.44;5011109;28;20697;-60
2022/01/24 09:56:28;;;;;;;4.07;2.77;;;;;;;18.76;49.10;101948.00;5010683;28;20424;-60
2022/01/24 09:58:54;;;;;;;4.47;2.80;;;;;;;18.76;49.10;101939.44;5010493;28;20430;-60
2022/01/24 10:01:19;;;;;;;4.23;2.50;;;;;;;18.79;48.93;101935.03;5024417;28;20220;-61
2022/01/24 10:04:08;;;;;;;3.17;2.20;;;;;;;18.80;49.09;101943.28;5009266;28;20219;-60
2022/01/24 10:06:58;;;;;;;3.40;2.70;;;;;;;18.77;49.29;101940.28;5011164;28;20216;-60
2022/01/24 10:09:47;;;;;;;3.77;2.50;;;;;;;18.73;49.18;101943.00;5010058;28;20420;-60
2022/01/24 10:17:54;;;;;;;3.40;2.43;;;;;;;18.79;49.24;101935.03;5010831;28;20419;-60
2022/01/24 10:20:27;;;;;;;3.47;2.40;;;;;;;18.76;49.29;101936.56;5010139;28;20405;-60
2022/01/24 10:23:26;;;;;;;2.73;2.13;;;;;;;18.75;49.28;101932.03;5010578;28;20212;-60
2022/01/24 10:25:59;;;;;;;4.40;2.30;;;;;;;18.77;49.50;101941.09;4987768;28;20503;-60
2022/01/24 10:28:30;;;;;;;3.30;2.23;;;;;;;18.77;49.58;101935.38;5007431;28;20695;-61
2022/01/24 10:31:16;;;;;;;3.80;2.57;;;;;;;18.77;49.26;101934.56;5009802;28;20424;-61
2022/01/24 10:34:03;;;;;;;2.90;2.10;;;;;;;18.80;49.52;101934.69;5010533;28;20514;-60
2022/01/24 10:36:49;;;;;;;3.17;2.10;;;;;;;18.80;49.19;101931.84;5009672;28;20424;-60
2022/01/24 10:39:32;;;;;;;4.80;3.10;;;;;;;18.81;49.09;101924.94;5009251;28;20423;-61
2022/01/24 10:42:41;;;;;;;3.20;2.30;;;;;;;18.84;48.97;101929.97;5010524;28;20466;-60
2022/01/24 10:45:00;;;;;;;3.47;2.77;;;;;;;18.83;49.06;101922.59;5012490;28;20462;-60
2022/01/24 10:47:29;;;;;;;3.67;2.47;;;;;;;18.80;49.39;101926.13;5012878;28;20419;-61
2022/01/24 10:49:55;;;;;;;3.80;2.57;;;;;;;18.81;49.21;101918.38;5013515;28;20478;-60
2022/01/24 10:52:23;;;;;;;3.50;2.53;;;;;;;18.81;49.51;101924.94;5014348;28;20416;-60
2022/01/24 10:54:51;;;;;;;3.20;2.30;;;;;;;18.82;49.72;101925.78;5013168;28;20169;-60
2022/01/24 10:57:24;;;;;;;3.47;2.40;;;;;;;18.86;49.07;101923.91;5013766;28;20420;-60
2022/01/24 10:59:50;;;;;;;3.50;2.47;;;;;;;18.82;49.86;101920.88;5012564;28;20915;-60
2022/01/24 11:02:16;;;;;;;3.10;2.20;;;;;;;18.85;49.25;101920.22;5013982;28;20467;-60
2022/01/24 11:04:42;;;;;;;3.10;2.27;;;;;;;18.82;49.73;101920.06;5010800;28;20452;-60
2022/01/24 11:07:07;;;;;;;3.47;2.47;;;;;;;18.85;49.20;101919.34;5013571;28;20200;-60
2022/01/24 11:09:37;;;;;;;4.40;2.77;;;;;;;18.83;49.54;101899.69;5013254;28;20177;-60
2022/01/24 11:12:12;;;;;;;3.27;2.20;;;;;;;18.86;49.24;101904.72;5013937;28;20196;-60
2022/01/24 11:14:42;;;;;;;3.27;2.10;;;;;;;18.84;50.03;101901.38;5010444;28;20757;-61
2022/01/24 11:17:09;;;;;;;3.80;2.40;;;;;;;18.86;49.40;101898.16;5014127;28;20792;-60
2022/01/24 11:22:01;;;;;;;3.47;2.20;;;;;;;18.86;49.33;101898.97;5013613;28;20432;-60
2022/01/24 11:24:51;;;;;;;3.47;2.57;;;;;;;18.86;49.38;101893.25;5013864;28;20216;-59
2022/01/24 11:27:15;;;;;;;4.07;2.50;;;;;;;18.86;49.34;101898.16;5013780;28;20428;-60
2022/01/24 11:29:41;;;;;;;2.87;2.20;;;;;;;18.91;49.18;101895.09;5013358;28;20776;-59
2022/01/24 11:32:29;;;;;;;3.40;2.20;;;;;;;18.90;49.71;101899.13;5012346;28;20177;-59
2022/01/24 11:34:57;;;;;;;3.17;2.17;;;;;;;18.90;49.20;101908.56;5011279;28;20183;-61
2022/01/24 11:37:33;;;;;;;3.53;2.40;;;;;;;18.90;49.44;101902.00;5013401;28;20510;-60
2022/01/24 11:39:59;;;;;;;3.20;2.13;;;;;;;18.92;49.02;101903.31;5013354;28;20884;-60
2022/01/24 11:42:29;;;;;;;3.37;2.40;;;;;;;18.91;49.25;101898.78;5013052;28;20510;-60
2022/01/24 11:44:58;;;;;;;3.20;2.30;;;;;;;18.92;49.46;101896.78;5010129;28;20660;-60
2022/01/24 11:47:26;;;;;;;3.73;2.30;;;;;;;18.99;49.13;101894.19;5010282;28;20796;-59
2022/01/24 11:49:54;;;;;;;3.23;2.30;;;;;;;18.93;49.38;101893.56;4993315;28;20839;-60
2022/01/24 11:52:30;;;;;;;3.27;2.60;;;;;;;18.96;49.24;101889.19;4993997;28;20462;-60
2022/01/24 11:55:17;;;;;;;3.57;2.60;;;;;;;18.97;49.53;101888.00;4992125;28;20453;-60
2022/01/24 11:57:50;;;;;;;3.73;2.67;;;;;;;18.96;49.32;101887.16;4993738;28;20411;-60
2022/01/24 12:00:26;;;;;;;3.67;2.77;;;;;;;18.96;48.98;101886.31;4993284;28;20415;-60
2022/01/24 12:02:56;;;;;;;2.90;2.00;;;;;;;18.99;49.42;101894.19;4993226;28;20951;-60
2022/01/24 12:05:41;;;;;;;2.73;1.90;;;;;;;18.96;49.17;101880.59;4993037;28;20820;-60
2022/01/24 12:08:07;;;;;;;3.47;2.20;;;;;;;18.93;49.19;101885.00;4993462;28;20420;-59
2022/01/24 12:10:33;;;;;;;3.17;2.20;;;;;;;18.89;49.58;101880.28;4994081;28;20429;-60
2022/01/24 12:13:02;;;;;;;2.90;2.00;;;;;;;18.95;49.23;101881.75;5012733;28;20420;-59
2022/01/24 12:15:36;;;;;;;3.30;2.30;;;;;;;18.92;49.87;101871.84;5012250;28;20839;-60
2022/01/24 12:18:02;;;;;;;3.67;2.20;;;;;;;18.92;49.38;101874.69;5012745;28;20502;-59
2022/01/24 12:20:30;;;;;;;3.60;2.60;;;;;;;18.90;49.55;101873.38;5012239;28;20419;-60
2022/01/24 12:22:57;;;;;;;2.67;1.90;;;;;;;18.93;49.43;101872.69;5009386;28;20853;-60
2022/01/24 12:25:52;;;;;;;2.60;1.90;;;;;;;18.91;49.66;101860.75;5012495;28;20487;-60
2022/01/24 12:28:24;;;;;;;3.80;2.40;;;;;;;18.90;50.08;101854.19;5012797;28;20432;-60
2022/01/24 12:31:06;;;;;;;3.23;2.17;;;;;;;18.91;49.60;101855.03;5011939;28;20487;-60
2022/01/24 12:33:36;;;;;;;3.07;2.20;;;;;;;18.90;49.37;101865.63;5012162;28;20451;-59
2022/01/24 12:36:06;;;;;;;3.77;2.47;;;;;;;18.89;49.54;101852.53;5011224;28;20908;-60
2022/01/24 12:38:58;;;;;;;3.83;2.67;;;;;;;18.90;49.33;101853.34;5012327;28;20922;-61
2022/01/24 12:41:34;;;;;;;3.40;2.20;;;;;;;18.88;49.63;101847.97;5009916;28;20982;-60
2022/01/24 12:46:27;;;;;;;3.43;2.70;;;;;;;18.88;49.61;101844.28;5012389;28;20455;-59
2022/01/24 12:48:54;;;;;;;3.70;2.33;;;;;;;18.87;49.84;101834.84;5011963;28;20423;-61
2022/01/24 12:51:22;;;;;;;3.23;2.10;;;;;;;18.88;49.73;101842.25;5011121;28;20212;-59
2022/01/24 12:53:49;;;;;;;2.77;1.90;;;;;;;18.88;49.61;101824.25;5011756;28;20427;-59
2022/01/24 12:56:16;;;;;;;3.37;2.40;;;;;;;18.90;50.10;101830.44;5011865;28;20450;-59
2022/01/24 12:58:43;;;;;;;3.10;2.20;;;;;;;18.88;49.35;101824.25;5011801;28;20480;-60
2022/01/24 13:01:31;;;;;;;4.50;2.40;;;;;;;18.89;49.82;101834.50;5009560;28;20456;-59
2022/01/24 13:04:04;;;;;;;3.43;2.30;;;;;;;18.88;49.47;101825.09;4991610;28;20405;-60
2022/01/24 13:06:31;;;;;;;4.60;2.00;;;;;;;18.86;50.00;101818.84;4999711;28;20539;-60
2022/01/24 13:09:13;;;;;;;3.80;2.77;;;;;;;18.84;50.09;101821.25;5011480;28;20419;-60
2022/01/24 13:11:45;;;;;;;3.63;2.33;;;;;;;18.86;49.55;101815.19;5010661;28;20515;-59
2022/01/24 13:14:16;;;;;;;4.00;2.43;;;;;;;18.88;49.55;101819.38;5011125;28;20431;-60
2022/01/24 13:25:22;;;;;;;3.37;2.23;;;;;;;18.90;49.66;101816.13;5010208;28;20532;-59
2022/01/24 13:27:50;;;;;;;2.80;2.17;;;;;;;18.86;49.52;101807.41;5011519;28;20944;-60
2022/01/24 13:30:25;;;;;;;3.83;2.67;;;;;;;18.87;49.38;101806.22;5010724;28;20400;-60
2022/01/24 13:32:52;;;;;;;3.53;2.50;;;;;;;18.92;49.41;101808.88;5011381;28;20415;-60